Telegraph Creek, Canada
Current Conditions -  °F | °C
As of 8:35 AM on Tuesday 27 Jan 2015 (Local Time) from CYDL Reporting Station
Clear Clear  
Wind Chill: -21°   Ceiling: Unl
Heat Index: -6°   Visibility: 9mi
Dew Point: -8°   Wind: 8mph
Humidity: 92%   Direction: 60°ENE
Pressure: 29.78"   Gusts: NA
Location:  57.9°N, 131.15°W
Report Text: CYDL 271635Z AUTO 06007KT 9SM CLR M21/M22 A2978 RMK SLP138
Loading
Personal Weather Stations






























Interactive Weather Map New forecast layout! Learn more

10-Day Weather Forecast

Advertisements
Track Severe Weather on mobile